Time,TemperatureF,DewpointF,PressureIn,WindDirection,WindDirectionDegrees,WindSpeedMPH,WindSpeedGustMPH,Humidity,HourlyPrecipIn,Conditions,Clouds,dailyrainin,SoftwareType,DateUTC
2013-06-05 00:03:00,56.9,44.4,30.01,NNE,22,0.0,7.0,63,0.00,,,-99.99,WeatherLink 5.7,2013-06-05 05:03:00,
2013-06-05 00:18:00,56.5,44.9,30.01,NNE,22,0.0,5.0,65,0.00,,,-99.99,WeatherLink 5.7,2013-06-05 05:18:00,
2013-06-05 00:33:00,55.9,45.1,30.01,NNE,22,0.0,5.0,67,0.00,,,-99.99,WeatherLink 5.7,2013-06-05 05:33:00,
2013-06-05 00:48:00,55.1,46.2,29.97,ESE,112,0.0,5.0,72,0.00,,,-99.99,WeatherLink 5.7,2013-06-05 05:48:00,
2013-06-05 01:03:00,53.9,46.9,29.96,SE,135,1.0,6.0,77,0.01,,,-99.99,WeatherLink 5.7,2013-06-05 06:03:00,
2013-06-05 01:18:00,53.2,47.8,29.96,East,90,0.0,2.0,82,0.02,,,-99.99,WeatherLink 5.7,2013-06-05 06:18:00,
2013-06-05 01:33:00,52.8,48.1,29.96,ESE,112,0.0,1.0,84,0.02,,,-99.99,WeatherLink 5.7,2013-06-05 06:33:00,
2013-06-05 01:48:00,52.6,48.2,29.96,North,-999,0.0,0.0,85,0.02,,,-99.99,WeatherLink 5.7,2013-06-05 06:48:00,
2013-06-05 02:03:00,52.8,48.7,29.95,North,-999,0.0,0.0,86,0.02,,,-99.99,WeatherLink 5.7,2013-06-05 07:03:00,
2013-06-05 02:18:00,52.9,49.4,29.96,North,-999,0.0,0.0,88,0.02,,,-99.99,WeatherLink 5.7,2013-06-05 07:18:00,
2013-06-05 02:33:00,52.9,49.7,29.95,NNE,22,0.0,2.0,89,0.02,,,-99.99,WeatherLink 5.7,2013-06-05 07:33:00,
2013-06-05 02:49:00,52.6,49.4,29.95,North,-999,0.0,0.0,89,0.02,,,-99.99,WeatherLink 5.7,2013-06-05 07:49:00,
2013-06-05 03:03:00,52.8,49.9,29.95,North,-999,0.0,0.0,90,0.01,,,-99.99,WeatherLink 5.7,2013-06-05 08:03:00,
2013-06-05 03:18:00,52.9,50.0,29.95,North,-999,0.0,0.0,90,0.00,,,-99.99,WeatherLink 5.7,2013-06-05 08:18:00,
2013-06-05 03:33:00,52.9,50.0,29.96,North,-999,0.0,0.0,90,0.00,,,-99.99,WeatherLink 5.7,2013-06-05 08:33:00,
2013-06-05 03:48:00,52.9,50.3,29.95,North,-999,0.0,0.0,91,0.01,,,-99.99,WeatherLink 5.7,2013-06-05 08:48:00,
2013-06-05 04:03:00,52.9,50.3,29.95,North,-999,0.0,0.0,91,0.01,,,-99.99,WeatherLink 5.7,2013-06-05 09:03:00,
2013-06-05 04:18:00,52.9,50.3,29.94,North,-999,0.0,0.0,91,0.01,,,-99.99,WeatherLink 5.7,2013-06-05 09:18:00,
2013-06-05 04:33:00,52.9,50.6,29.94,North,-999,0.0,0.0,92,0.01,,,-99.99,WeatherLink 5.7,2013-06-05 09:33:00,
2013-06-05 04:48:00,52.9,50.6,29.93,ESE,112,0.0,4.0,92,0.00,,,-99.99,WeatherLink 5.7,2013-06-05 09:48:00,
2013-06-05 05:03:00,52.9,50.6,29.93,ESE,112,0.0,4.0,92,0.00,,,-99.99,WeatherLink 5.7,2013-06-05 10:03:00,
2013-06-05 05:18:00,52.9,50.6,29.94,North,-999,0.0,0.0,92,0.00,,,-99.99,WeatherLink 5.7,2013-06-05 10:18:00,
2013-06-05 05:33:00,52.9,50.6,29.93,North,-999,0.0,0.0,92,0.00,,,-99.99,WeatherLink 5.7,2013-06-05 10:33:00,
2013-06-05 05:48:00,52.8,50.8,29.93,North,-999,0.0,0.0,93,0.00,,,-99.99,WeatherLink 5.7,2013-06-05 10:48:00,
2013-06-05 06:03:00,52.6,50.6,29.93,ESE,112,0.0,1.0,93,0.00,,,-99.99,WeatherLink 5.7,2013-06-05 11:03:00,
2013-06-05 06:18:00,52.8,50.8,29.92,North,-999,0.0,0.0,93,0.00,,,-99.99,WeatherLink 5.7,2013-06-05 11:18:00,
2013-06-05 06:33:00,53.3,51.3,29.92,ESE,112,0.0,4.0,93,0.00,,,-99.99,WeatherLink 5.7,2013-06-05 11:33:00,
2013-06-05 06:48:00,53.6,51.6,29.92,ESE,112,0.0,3.0,93,0.00,,,-99.99,WeatherLink 5.7,2013-06-05 11:48:00,
2013-06-05 07:03:00,53.8,51.8,29.93,ESE,112,0.0,4.0,93,0.00,,,-99.99,WeatherLink 5.7,2013-06-05 12:03:00,
2013-06-05 07:18:00,54.1,52.1,29.93,East,90,0.0,2.0,93,0.00,,,-99.99,WeatherLink 5.7,2013-06-05 12:18:00,
2013-06-05 07:33:00,54.2,51.9,29.93,ESE,112,0.0,1.0,92,0.00,,,-99.99,WeatherLink 5.7,2013-06-05 12:33:00,
2013-06-05 07:48:00,54.5,52.2,29.92,ESE,112,0.0,3.0,92,0.00,,,-99.99,WeatherLink 5.7,2013-06-05 12:48:00,
2013-06-05 08:03:00,55.1,52.8,29.92,ESE,112,0.0,4.0,92,0.00,,,-99.99,WeatherLink 5.7,2013-06-05 13:03:00,
2013-06-05 08:18:00,55.3,52.4,29.92,ESE,112,0.0,4.0,90,0.00,,,-99.99,WeatherLink 5.7,2013-06-05 13:18:00,
2013-06-05 08:33:00,55.7,52.8,29.92,SE,135,0.0,1.0,90,0.00,,,-99.99,WeatherLink 5.7,2013-06-05 13:33:00,
2013-06-05 08:48:00,56.0,53.1,29.92,SE,135,0.0,1.0,90,0.00,,,-99.99,WeatherLink 5.7,2013-06-05 13:48:00,
2013-06-05 09:03:00,56.3,53.1,29.90,SE,135,0.0,3.0,89,0.00,,,-99.99,WeatherLink 5.7,2013-06-05 14:03:00,
2013-06-05 09:18:00,56.9,53.1,29.90,ESE,112,1.0,5.0,87,0.00,,,-99.99,WeatherLink 5.7,2013-06-05 14:18:00,
2013-06-05 09:33:00,57.8,53.3,29.90,ESE,112,0.0,6.0,85,0.00,,,-99.99,WeatherLink 5.7,2013-06-05 14:33:00,
2013-06-05 09:48:00,58.7,53.5,29.90,ESE,112,0.0,4.0,83,0.00,,,-99.99,WeatherLink 5.7,2013-06-05 14:48:00,
2013-06-05 10:03:00,59.3,53.5,29.91,ESE,112,0.0,4.0,81,0.00,,,-99.99,WeatherLink 5.7,2013-06-05 15:03:00,
2013-06-05 10:18:00,60.1,53.9,29.93,East,90,0.0,1.0,80,0.00,,,-99.99,WeatherLink 5.7,2013-06-05 15:18:00,
2013-06-05 10:33:00,60.7,54.5,29.93,North,-999,0.0,0.0,80,0.00,,,-99.99,WeatherLink 5.7,2013-06-05 15:33:00,
2013-06-05 10:48:00,61.5,54.2,29.91,North,0,0.0,1.0,77,0.00,,,-99.99,WeatherLink 5.7,2013-06-05 15:48:00,
2013-06-05 11:03:00,62.3,53.9,29.91,NNE,22,0.0,3.0,74,0.00,,,-99.99,WeatherLink 5.7,2013-06-05 16:03:00,
2013-06-05 11:18:00,62.3,53.9,29.91,SE,135,0.0,1.0,74,0.00,,,-99.99,WeatherLink 5.7,2013-06-05 16:18:00,
2013-06-05 11:33:00,61.6,54.3,29.90,ESE,112,1.0,7.0,77,0.00,,,-99.99,WeatherLink 5.7,2013-06-05 16:33:00,
2013-06-05 11:48:00,61.5,56.0,29.89,ESE,112,0.0,6.0,82,0.00,,,-99.99,WeatherLink 5.7,2013-06-05 16:48:00,
2013-06-05 12:03:00,62.1,55.9,29.89,SE,135,1.0,10.0,80,0.00,,,-99.99,WeatherLink 5.7,2013-06-05 17:03:00,
2013-06-05 12:18:00,61.5,55.3,29.88,ESE,112,1.0,7.0,80,0.00,,,-99.99,WeatherLink 5.7,2013-06-05 17:18:00,
2013-06-05 12:33:00,61.8,56.2,29.89,ESE,112,1.0,6.0,82,0.00,,,-99.99,WeatherLink 5.7,2013-06-05 17:33:00,
2013-06-05 12:48:00,62.4,56.8,29.89,ESE,112,0.0,5.0,82,0.00,,,-99.99,WeatherLink 5.7,2013-06-05 17:48:00,
2013-06-05 13:03:00,63.4,57.1,29.88,SE,135,0.0,5.0,80,0.00,,,-99.99,WeatherLink 5.7,2013-06-05 18:03:00,
2013-06-05 13:18:00,64.2,56.1,29.88,ESE,112,1.0,9.0,75,0.00,,,-99.99,WeatherLink 5.7,2013-06-05 18:18:00,
2013-06-05 13:33:00,64.5,56.4,29.88,SSE,157,0.0,10.0,75,0.00,,,-99.99,WeatherLink 5.7,2013-06-05 18:33:00,
2013-06-05 13:48:00,64.0,55.5,29.89,SE,135,0.0,5.0,74,0.00,,,-99.99,WeatherLink 5.7,2013-06-05 18:48:00,
2013-06-05 14:03:00,64.5,56.4,29.88,ESE,112,0.0,6.0,75,0.00,,,-99.99,WeatherLink 5.7,2013-06-05 19:03:00,
2013-06-05 14:18:00,64.2,56.1,29.87,SE,135,0.0,4.0,75,0.00,,,-99.99,WeatherLink 5.7,2013-06-05 19:18:00,
2013-06-05 14:33:00,64.0,56.3,29.86,SE,135,0.0,1.0,76,0.00,,,-99.99,WeatherLink 5.7,2013-06-05 19:33:00,
2013-06-05 14:48:00,64.5,56.8,29.87,ESE,112,0.0,4.0,76,0.00,,,-99.99,WeatherLink 5.7,2013-06-05 19:48:00,
2013-06-05 15:03:00,64.2,56.5,29.87,SE,135,0.0,4.0,76,0.00,,,-99.99,WeatherLink 5.7,2013-06-05 20:03:00,
2013-06-05 15:18:00,64.8,56.7,29.87,SSE,157,0.0,4.0,75,0.00,,,-99.99,WeatherLink 5.7,2013-06-05 20:18:00,
2013-06-05 15:33:00,65.0,57.2,29.87,SSE,157,0.0,2.0,76,0.00,,,-99.99,WeatherLink 5.7,2013-06-05 20:33:00,
2013-06-05 15:48:00,64.8,57.4,29.86,ESE,112,0.0,4.0,77,0.00,,,-99.99,WeatherLink 5.7,2013-06-05 20:48:00,
2013-06-05 16:03:00,64.3,57.3,29.87,SE,135,0.0,3.0,78,0.00,,,-99.99,WeatherLink 5.7,2013-06-05 21:03:00,
2013-06-05 16:18:00,64.3,57.6,29.87,South,180,0.0,1.0,79,0.00,,,-99.99,WeatherLink 5.7,2013-06-05 21:18:00,
2013-06-05 16:33:00,64.2,57.5,29.87,ESE,112,0.0,1.0,79,0.00,,,-99.99,WeatherLink 5.7,2013-06-05 21:33:00,
2013-06-05 16:48:00,64.2,58.2,29.86,ESE,112,0.0,2.0,81,0.00,,,-99.99,WeatherLink 5.7,2013-06-05 21:48:00,
2013-06-05 17:04:00,63.5,57.9,29.86,ESE,112,0.0,3.0,82,0.00,,,-99.99,WeatherLink 5.7,2013-06-05 22:04:00,
2013-06-05 17:18:00,63.4,57.8,29.85,ESE,112,0.0,2.0,82,0.00,,,-99.99,WeatherLink 5.7,2013-06-05 22:18:00,
2013-06-05 17:33:00,63.1,57.5,29.85,East,90,0.0,2.0,82,0.00,,,-99.99,WeatherLink 5.7,2013-06-05 22:33:00,
2013-06-05 17:48:00,62.7,57.5,29.84,East,90,0.0,3.0,83,0.00,,,-99.99,WeatherLink 5.7,2013-06-05 22:48:00,
2013-06-05 18:03:00,62.6,58.0,29.84,ESE,112,0.0,4.0,85,0.00,,,-99.99,WeatherLink 5.7,2013-06-05 23:03:00,
2013-06-05 18:18:00,61.6,57.0,29.84,ESE,112,0.0,6.0,85,0.00,,,-99.99,WeatherLink 5.7,2013-06-05 23:18:00,
2013-06-05 18:33:00,60.9,56.0,29.84,ESE,112,0.0,4.0,84,0.00,,,-99.99,WeatherLink 5.7,2013-06-05 23:33:00,
2013-06-05 18:48:00,60.4,54.9,29.84,ESE,112,0.0,3.0,82,0.00,,,-99.99,WeatherLink 5.7,2013-06-05 23:48:00,
2013-06-05 19:03:00,59.9,54.7,29.84,ESE,112,0.0,4.0,83,0.00,,,-99.99,WeatherLink 5.7,2013-06-06 00:03:00,
2013-06-05 19:18:00,59.6,54.4,29.84,NE,45,0.0,1.0,83,0.00,,,-99.99,WeatherLink 5.7,2013-06-06 00:18:00,
2013-06-05 19:33:00,59.2,54.4,29.85,SE,135,0.0,3.0,84,0.02,,,-99.99,WeatherLink 5.7,2013-06-06 00:33:00,
2013-06-05 19:48:00,58.4,54.5,29.84,ESE,112,0.0,1.0,87,0.04,,,-99.99,WeatherLink 5.7,2013-06-06 00:48:00,
2013-06-05 20:03:00,57.5,54.3,29.83,ESE,112,0.0,6.0,89,0.07,,,-99.99,WeatherLink 5.7,2013-06-06 01:03:00,
2013-06-05 20:18:00,56.7,53.8,29.83,SE,135,1.0,9.0,90,0.09,,,-99.99,WeatherLink 5.7,2013-06-06 01:18:00,
2013-06-05 20:33:00,56.5,53.9,29.83,SE,135,0.0,4.0,91,0.08,,,-99.99,WeatherLink 5.7,2013-06-06 01:33:00,
2013-06-05 20:48:00,56.2,53.9,29.84,ESE,112,0.0,3.0,92,0.07,,,-99.99,WeatherLink 5.7,2013-06-06 01:48:00,
2013-06-05 21:03:00,56.0,53.7,29.84,North,0,0.0,3.0,92,0.04,,,-99.99,WeatherLink 5.7,2013-06-06 02:03:00,
2013-06-05 21:18:00,55.9,53.9,29.84,SE,135,0.0,1.0,93,0.02,,,-99.99,WeatherLink 5.7,2013-06-06 02:18:00,
2013-06-05 21:33:00,55.7,53.7,29.84,SE,135,0.0,4.0,93,0.01,,,-99.99,WeatherLink 5.7,2013-06-06 02:33:00,
2013-06-05 21:49:00,54.7,52.4,29.85,SE,135,1.0,6.0,92,0.00,,,-99.99,WeatherLink 5.7,2013-06-06 02:49:00,
2013-06-05 22:05:00,54.4,52.1,29.85,East,90,0.0,9.0,92,0.00,,,-99.99,WeatherLink 5.7,2013-06-06 03:05:00,
2013-06-05 22:18:00,54.1,51.8,29.85,SE,135,0.0,3.0,92,0.00,,,-99.99,WeatherLink 5.7,2013-06-06 03:18:00,
2013-06-05 22:33:00,53.9,51.9,29.85,North,-999,0.0,0.0,93,0.00,,,-99.99,WeatherLink 5.7,2013-06-06 03:33:00,
2013-06-05 22:48:00,53.8,51.8,29.85,North,-999,0.0,0.0,93,0.00,,,-99.99,WeatherLink 5.7,2013-06-06 03:48:00,
2013-06-05 23:03:00,53.8,51.8,29.84,North,-999,0.0,0.0,93,0.00,,,-99.99,WeatherLink 5.7,2013-06-06 04:03:00,
2013-06-05 23:18:00,53.8,51.8,29.84,North,-999,0.0,0.0,93,0.00,,,-99.99,WeatherLink 5.7,2013-06-06 04:18:00,
2013-06-05 23:33:00,53.8,51.8,29.84,North,-999,0.0,0.0,93,0.00,,,-99.99,WeatherLink 5.7,2013-06-06 04:33:00,
2013-06-05 23:48:00,53.8,51.8,29.83,North,-999,0.0,0.0,93,0.00,,,-99.99,WeatherLink 5.7,2013-06-06 04:48:00,